createdAt,value
2022-11-30T06:03:33.611Z,82.04
2022-11-30T06:08:54.623Z,81.99
2022-11-30T06:14:15.722Z,81.89
2022-11-30T06:19:36.612Z,81.96
2022-11-30T06:24:57.482Z,82.19
2022-11-30T06:30:18.829Z,82.16
2022-11-30T06:35:47.842Z,81.91
2022-11-30T06:41:12.375Z,81.23
2022-11-30T06:46:33.633Z,81.34
2022-11-30T06:51:54.630Z,81.38
2022-11-30T06:57:15.458Z,81.57
2022-11-30T07:02:36.618Z,81.67
2022-11-30T07:07:57.735Z,81.51
2022-11-30T07:13:19.373Z,81.91
2022-11-30T07:18:40.279Z,81.82
2022-11-30T07:24:19.486Z,81.52
2022-11-30T07:29:40.445Z,81.98
2022-11-30T07:35:01.123Z,81.82
2022-11-30T07:40:21.960Z,81.20
2022-11-30T07:45:42.614Z,81.10
2022-11-30T07:51:10.253Z,81.47
2022-11-30T07:56:31.088Z,81.06
2022-11-30T08:01:52.241Z,81.59
2022-11-30T08:07:13.023Z,80.92
2022-11-30T08:12:33.837Z,81.13
2022-11-30T08:17:55.259Z,80.13
2022-11-30T08:23:15.919Z,80.20
2022-11-30T08:28:37.081Z,80.56
2022-11-30T08:34:02.250Z,80.18
2022-11-30T08:39:23.252Z,79.98
2022-11-30T08:44:44.206Z,79.46
2022-11-30T08:50:05.461Z,79.91
2022-11-30T08:55:26.251Z,79.34
2022-11-30T09:00:47.028Z,78.88
2022-11-30T09:06:12.853Z,78.78
2022-11-30T09:11:34.063Z,79.42
2022-11-30T09:16:55.312Z,78.24
2022-11-30T09:22:16.417Z,78.95
2022-11-30T09:31:49.425Z,78.37
2022-11-30T09:32:40.824Z,80.24
2022-11-30T09:33:31.865Z,81.28
2022-11-30T09:34:22.406Z,81.83
2022-11-30T09:35:13.321Z,82.10
2022-11-30T09:36:09.961Z,82.18
2022-11-30T09:37:01.044Z,82.28
2022-11-30T09:37:53.105Z,82.22
2022-11-30T09:38:43.607Z,82.25
2022-11-30T09:39:34.429Z,81.98
2022-11-30T09:40:33.904Z,82.02
2022-11-30T09:41:41.177Z,81.71
2022-11-30T09:42:34.988Z,81.74
2022-11-30T09:43:26.082Z,81.16
2022-11-30T09:44:37.968Z,81.20
2022-11-30T09:45:31.537Z,81.21
2022-11-30T09:46:30.289Z,80.70
2022-11-30T09:47:36.258Z,80.47
2022-11-30T09:48:48.025Z,80.28
2022-11-30T09:49:48.784Z,79.84
2022-11-30T09:50:44.979Z,79.88
2022-11-30T09:51:48.146Z,79.46
2022-11-30T09:52:48.582Z,79.16
2022-11-30T09:53:49.209Z,79.13
2022-11-30T09:54:43.279Z,78.80
2022-11-30T09:55:39.981Z,78.69
2022-11-30T09:56:34.337Z,78.74
2022-11-30T09:58:11.740Z,78.72
2022-11-30T09:59:12.923Z,78.33
2022-11-30T10:00:15.081Z,78.14
2022-11-30T10:01:18.645Z,78.05
2022-11-30T10:02:25.427Z,78.11
2022-11-30T10:03:20.916Z,77.71
2022-11-30T10:04:59.459Z,77.42
2022-11-30T10:06:43.240Z,76.87
2022-11-30T10:08:44.830Z,75.09
2022-11-30T10:10:34.264Z,75.47
2022-11-30T10:11:51.540Z,75.58
2022-11-30T10:13:01.306Z,75.67
2022-11-30T10:15:02.081Z,75.00
2022-11-30T10:16:20.911Z,74.88
2022-11-30T10:17:45.486Z,74.48
2022-11-30T10:19:11.532Z,74.36
2022-11-30T10:32:35.584Z,71.50
2022-11-30T10:33:18.561Z,71.54
2022-11-30T10:33:54.234Z,71.60
2022-11-30T10:34:33.550Z,71.79
2022-11-30T10:35:38.407Z,71.91
2022-11-30T10:36:15.401Z,71.92
2022-11-30T10:38:18.360Z,71.99
2022-11-30T10:38:56.066Z,71.60
2022-11-30T10:39:52.980Z,71.75
2022-11-30T10:47:50.284Z,71.52
2022-11-30T10:56:38.495Z,69.04
2022-11-30T11:01:42.453Z,69.47
2022-11-30T11:06:55.600Z,68.96
2022-11-30T11:12:00.393Z,68.88
2022-11-30T11:17:06.065Z,69.11
2022-11-30T11:22:23.726Z,69.06
2022-11-30T11:27:30.198Z,68.93
2022-11-30T11:32:32.510Z,68.80
2022-11-30T11:37:38.280Z,68.84
2022-11-30T11:42:49.167Z,68.65
2022-11-30T11:48:03.329Z,68.67
2022-11-30T11:53:23.980Z,68.77
2022-11-30T11:58:56.562Z,68.22
2022-11-30T12:04:27.906Z,68.36
2022-11-30T12:09:46.739Z,67.91
2022-11-30T12:14:49.224Z,67.96
2022-11-30T12:24:06.689Z,67.70
2022-11-30T12:29:21.377Z,68.01
2022-11-30T12:34:57.324Z,67.49
2022-11-30T12:39:59.457Z,67.77
2022-11-30T12:45:17.267Z,67.50
2022-11-30T12:50:45.596Z,67.57
2022-11-30T12:55:56.704Z,67.44
2022-11-30T13:01:07.845Z,67.37
2022-11-30T13:06:23.968Z,67.50
2022-11-30T13:11:39.587Z,67.33
2022-11-30T13:16:44.081Z,67.01
2022-11-30T13:21:55.651Z,67.02
2022-11-30T13:27:01.665Z,67.06
2022-11-30T13:32:41.108Z,67.22
2022-11-30T13:37:38.194Z,67.11
2022-11-30T13:42:48.871Z,67.22
2022-11-30T13:47:56.307Z,67.12
2022-11-30T13:52:58.702Z,66.98
2022-11-30T13:58:01.072Z,67.04
2022-11-30T14:03:21.660Z,67.16
2022-11-30T14:08:23.872Z,67.02
2022-11-30T14:13:32.174Z,67.03
2022-11-30T14:18:45.571Z,67.08
2022-11-30T14:24:06.714Z,66.93
2022-11-30T14:29:08.868Z,66.87
2022-11-30T14:34:11.857Z,66.86
2022-11-30T14:39:36.048Z,66.87
2022-11-30T14:44:40.747Z,66.94
2022-11-30T14:49:48.717Z,66.77
2022-11-30T14:54:59.579Z,66.83
2022-11-30T15:00:02.040Z,66.75
2022-11-30T15:05:12.069Z,66.99
2022-11-30T15:10:36.044Z,66.61
2022-11-30T15:15:41.793Z,66.60
2022-11-30T15:20:56.239Z,67.01
2022-11-30T15:26:10.086Z,66.61
2022-11-30T15:31:15.971Z,66.64
2022-11-30T15:36:32.377Z,63.84
2022-11-30T15:41:36.225Z,63.78
2022-11-30T15:46:46.070Z,63.66
2022-11-30T15:51:59.651Z,64.44
2022-11-30T15:57:07.505Z,64.94
2022-11-30T16:02:42.803Z,65.26
2022-11-30T16:07:47.941Z,65.08
2022-11-30T16:12:52.296Z,65.31
2022-11-30T16:18:00.627Z,65.61
2022-11-30T16:23:05.951Z,65.95
2022-11-30T16:28:10.283Z,66.06
2022-11-30T16:33:18.078Z,65.81
2022-11-30T16:38:20.874Z,65.76
2022-11-30T16:43:26.197Z,65.81
2022-11-30T16:48:30.482Z,65.70
2022-11-30T16:53:32.693Z,65.90
2022-11-30T16:58:34.897Z,65.84
2022-11-30T17:03:37.860Z,65.59
2022-11-30T17:08:40.093Z,65.47
2022-11-30T17:13:42.350Z,65.64
2022-11-30T17:18:44.613Z,65.31
2022-11-30T17:23:46.900Z,65.13
2022-11-30T17:28:49.206Z,65.60
2022-11-30T17:33:51.499Z,65.11
2022-11-30T17:38:53.770Z,65.59
2022-11-30T17:43:56.075Z,66.15
2022-11-30T17:48:58.538Z,66.38
2022-11-30T17:54:00.839Z,66.17
2022-11-30T17:59:03.149Z,66.56
2022-11-30T18:04:05.389Z,66.37
2022-11-30T18:09:07.926Z,66.25
2022-11-30T18:14:10.305Z,66.66
2022-11-30T18:19:14.566Z,66.65
2022-11-30T18:24:21.121Z,66.75
2022-11-30T18:29:26.441Z,66.63
2022-11-30T18:34:28.824Z,66.79
2022-11-30T18:39:31.111Z,66.66
2022-11-30T18:44:33.387Z,66.98
2022-11-30T18:49:35.637Z,66.87
2022-11-30T18:54:37.864Z,66.56
2022-11-30T18:59:40.068Z,66.65
2022-11-30T19:04:42.323Z,66.97
2022-11-30T19:09:44.600Z,62.96
2022-11-30T19:14:47.234Z,61.56
2022-11-30T19:19:49.653Z,61.29
2022-11-30T19:24:51.896Z,61.25
2022-11-30T19:29:54.140Z,61.80
2022-11-30T19:34:56.359Z,61.79
2022-11-30T19:39:58.575Z,61.89
2022-11-30T19:45:00.803Z,62.29
2022-11-30T19:50:06.759Z,62.11
2022-11-30T19:55:09.467Z,62.37
2022-11-30T20:00:12.609Z,62.57
2022-11-30T20:05:17.853Z,62.59
2022-11-30T20:10:20.136Z,62.66
2022-11-30T20:15:22.451Z,63.15
2022-11-30T20:20:25.024Z,62.97
2022-11-30T20:25:29.534Z,63.26
2022-11-30T20:30:31.831Z,63.01
2022-11-30T20:35:35.057Z,63.00
2022-11-30T20:40:39.787Z,63.35
2022-11-30T20:45:41.993Z,63.36
2022-11-30T20:50:55.965Z,63.40
2022-11-30T20:56:07.179Z,63.42
2022-11-30T21:01:16.271Z,63.44
2022-11-30T21:06:18.566Z,63.48
2022-11-30T21:11:21.437Z,63.57
2022-11-30T21:16:28.134Z,63.69
2022-11-30T21:21:34.093Z,63.68
2022-11-30T21:26:42.396Z,63.79
2022-11-30T21:31:45.332Z,63.55
2022-11-30T21:36:48.865Z,63.98
2022-11-30T21:41:51.183Z,63.73
2022-11-30T21:46:53.442Z,63.68
2022-11-30T21:51:55.746Z,63.67
2022-11-30T21:56:57.978Z,63.74
2022-11-30T22:02:00.343Z,63.65
2022-11-30T22:07:02.630Z,63.72
2022-11-30T22:12:05.076Z,64.08
2022-11-30T22:17:07.266Z,64.24
2022-11-30T22:22:09.457Z,63.95
2022-11-30T22:27:11.758Z,63.81
2022-11-30T22:32:14.093Z,63.78
2022-11-30T22:37:16.304Z,63.81
2022-11-30T22:42:18.551Z,63.86
